sensor_id;sensor_type;location;lat;lon;timestamp;pressure;altitude;pressure_sealevel;temperature;humidity
68988;BME280;56038;46.080;11.116;2023-05-07T00:01:50;99319.06;;;18.26;64.18
68988;BME280;56038;46.080;11.116;2023-05-07T00:06:53;99332.91;;;18.30;64.15
68988;BME280;56038;46.080;11.116;2023-05-07T00:11:55;99330.06;;;18.33;63.95
68988;BME280;56038;46.080;11.116;2023-05-07T00:16:57;99331.63;;;18.35;63.86
68988;BME280;56038;46.080;11.116;2023-05-07T00:22:00;99340.56;;;18.21;64.40
68988;BME280;56038;46.080;11.116;2023-05-07T00:27:02;99335.72;;;18.15;64.86
68988;BME280;56038;46.080;11.116;2023-05-07T00:32:04;99338.44;;;18.14;65.11
68988;BME280;56038;46.080;11.116;2023-05-07T00:37:07;99345.66;;;18.12;65.72
68988;BME280;56038;46.080;11.116;2023-05-07T00:42:09;99337.84;;;18.10;65.87
68988;BME280;56038;46.080;11.116;2023-05-07T00:47:11;99333.94;;;18.03;66.26
68988;BME280;56038;46.080;11.116;2023-05-07T00:52:16;99345.06;;;17.95;67.10
68988;BME280;56038;46.080;11.116;2023-05-07T00:57:18;99341.91;;;17.90;72.34
68988;BME280;56038;46.080;11.116;2023-05-07T01:02:20;99341.03;;;17.64;69.65
68988;BME280;56038;46.080;11.116;2023-05-07T01:07:23;99347.81;;;17.56;71.33
68988;BME280;56038;46.080;11.116;2023-05-07T01:12:25;99348.88;;;17.41;72.53
68988;BME280;56038;46.080;11.116;2023-05-07T01:17:27;99351.28;;;17.18;74.66
68988;BME280;56038;46.080;11.116;2023-05-07T01:22:32;99343.56;;;17.15;76.04
68988;BME280;56038;46.080;11.116;2023-05-07T01:27:34;99359.09;;;17.07;76.66
68988;BME280;56038;46.080;11.116;2023-05-07T01:32:42;99348.72;;;17.04;76.26
68988;BME280;56038;46.080;11.116;2023-05-07T01:37:46;99356.00;;;17.00;75.88
68988;BME280;56038;46.080;11.116;2023-05-07T01:42:48;99359.06;;;16.94;76.41
68988;BME280;56038;46.080;11.116;2023-05-07T01:47:51;99357.44;;;16.79;77.25
68988;BME280;56038;46.080;11.116;2023-05-07T01:52:55;99370.16;;;16.72;77.80
68988;BME280;56038;46.080;11.116;2023-05-07T01:57:56;99377.69;;;16.79;77.79
68988;BME280;56038;46.080;11.116;2023-05-07T02:02:58;99373.91;;;16.83;77.22
68988;BME280;56038;46.080;11.116;2023-05-07T02:08:01;99374.31;;;16.76;77.44
68988;BME280;56038;46.080;11.116;2023-05-07T02:13:03;99366.41;;;16.62;78.82
68988;BME280;56038;46.080;11.116;2023-05-07T02:18:06;99362.63;;;16.66;78.33
68988;BME280;56038;46.080;11.116;2023-05-07T02:23:09;99359.44;;;16.61;79.07
68988;BME280;56038;46.080;11.116;2023-05-07T02:28:11;99360.50;;;16.59;79.80
68988;BME280;56038;46.080;11.116;2023-05-07T02:33:12;99363.41;;;16.54;80.64
68988;BME280;56038;46.080;11.116;2023-05-07T02:38:15;99352.88;;;16.54;80.92
68988;BME280;56038;46.080;11.116;2023-05-07T02:43:17;99354.19;;;16.61;80.18
68988;BME280;56038;46.080;11.116;2023-05-07T02:48:18;99353.59;;;16.70;79.81
68988;BME280;56038;46.080;11.116;2023-05-07T02:53:21;99356.97;;;16.72;80.70
68988;BME280;56038;46.080;11.116;2023-05-07T02:58:25;99359.13;;;16.80;86.39
68988;BME280;56038;46.080;11.116;2023-05-07T03:03:27;99353.84;;;16.80;80.59
68988;BME280;56038;46.080;11.116;2023-05-07T03:08:30;99346.88;;;16.79;80.75
68988;BME280;56038;46.080;11.116;2023-05-07T03:13:32;99357.31;;;16.81;81.01
68988;BME280;56038;46.080;11.116;2023-05-07T03:18:33;99356.97;;;16.72;82.06
68988;BME280;56038;46.080;11.116;2023-05-07T03:23:37;99341.53;;;16.66;82.79
68988;BME280;56038;46.080;11.116;2023-05-07T03:28:38;99339.44;;;16.71;82.48
68988;BME280;56038;46.080;11.116;2023-05-07T03:33:50;99339.66;;;16.68;83.78
68988;BME280;56038;46.080;11.116;2023-05-07T03:38:54;99346.09;;;16.50;83.73
68988;BME280;56038;46.080;11.116;2023-05-07T03:43:56;99353.81;;;16.53;83.27
68988;BME280;56038;46.080;11.116;2023-05-07T03:48:57;99353.34;;;16.61;82.49
68988;BME280;56038;46.080;11.116;2023-05-07T03:54:00;99361.25;;;16.61;82.49
68988;BME280;56038;46.080;11.116;2023-05-07T03:59:02;99361.03;;;16.64;82.31
68988;BME280;56038;46.080;11.116;2023-05-07T04:04:04;99366.41;;;16.62;82.92
68988;BME280;56038;46.080;11.116;2023-05-07T04:09:07;99361.34;;;16.59;82.52
68988;BME280;56038;46.080;11.116;2023-05-07T04:14:08;99362.94;;;16.62;82.08
68988;BME280;56038;46.080;11.116;2023-05-07T04:19:10;99374.22;;;16.64;81.62
68988;BME280;56038;46.080;11.116;2023-05-07T04:24:13;99367.25;;;16.63;81.58
68988;BME280;56038;46.080;11.116;2023-05-07T04:29:15;99373.94;;;16.68;81.24
68988;BME280;56038;46.080;11.116;2023-05-07T04:34:17;99378.94;;;16.73;81.65
68988;BME280;56038;46.080;11.116;2023-05-07T04:39:20;99378.44;;;16.81;81.67
68988;BME280;56038;46.080;11.116;2023-05-07T04:44:21;99381.59;;;16.86;81.68
68988;BME280;56038;46.080;11.116;2023-05-07T04:49:23;99377.63;;;16.93;81.87
68988;BME280;56038;46.080;11.116;2023-05-07T04:54:26;99373.63;;;17.00;81.19
68988;BME280;56038;46.080;11.116;2023-05-07T04:59:28;99373.75;;;17.11;80.66
68988;BME280;56038;46.080;11.116;2023-05-07T05:04:29;99375.81;;;17.20;79.98
68988;BME280;56038;46.080;11.116;2023-05-07T05:09:33;99374.84;;;17.21;79.71
68988;BME280;56038;46.080;11.116;2023-05-07T05:14:34;99375.59;;;17.23;78.77
68988;BME280;56038;46.080;11.116;2023-05-07T05:19:36;99381.25;;;17.17;78.89
68988;BME280;56038;46.080;11.116;2023-05-07T05:24:39;99399.16;;;16.99;78.58
68988;BME280;56038;46.080;11.116;2023-05-07T05:29:41;99396.09;;;16.93;78.69
68988;BME280;56038;46.080;11.116;2023-05-07T05:34:43;99398.78;;;17.05;77.53
68988;BME280;56038;46.080;11.116;2023-05-07T05:39:46;99395.75;;;17.24;76.59
68988;BME280;56038;46.080;11.116;2023-05-07T05:44:48;99399.56;;;17.33;75.94
68988;BME280;56038;46.080;11.116;2023-05-07T05:49:49;99397.88;;;17.45;75.48
68988;BME280;56038;46.080;11.116;2023-05-07T05:54:53;99389.25;;;17.55;74.85
68988;BME280;56038;46.080;11.116;2023-05-07T05:59:55;99401.94;;;17.88;73.55
68988;BME280;56038;46.080;11.116;2023-05-07T06:04:56;99400.88;;;18.04;72.88
68988;BME280;56038;46.080;11.116;2023-05-07T06:09:59;99408.38;;;17.97;72.34
68988;BME280;56038;46.080;11.116;2023-05-07T06:15:01;99408.81;;;18.04;71.93
68988;BME280;56038;46.080;11.116;2023-05-07T06:20:04;99403.03;;;18.35;71.23
68988;BME280;56038;46.080;11.116;2023-05-07T06:25:08;99390.38;;;18.88;69.74
68988;BME280;56038;46.080;11.116;2023-05-07T06:30:10;99392.34;;;19.32;68.72
68988;BME280;56038;46.080;11.116;2023-05-07T06:35:12;99383.19;;;19.36;68.07
68988;BME280;56038;46.080;11.116;2023-05-07T06:40:15;99381.50;;;19.59;67.56
68988;BME280;56038;46.080;11.116;2023-05-07T06:45:17;99381.72;;;19.67;67.07
68988;BME280;56038;46.080;11.116;2023-05-07T06:50:19;99382.94;;;19.74;66.74
68988;BME280;56038;46.080;11.116;2023-05-07T06:55:22;99378.38;;;20.21;65.47
68988;BME280;56038;46.080;11.116;2023-05-07T07:00:25;99367.44;;;20.69;63.99
68988;BME280;56038;46.080;11.116;2023-05-07T07:05:36;99368.22;;;20.81;63.90
68988;BME280;56038;46.080;11.116;2023-05-07T07:10:47;99362.00;;;20.71;63.77
68988;BME280;56038;46.080;11.116;2023-05-07T07:15:48;99368.81;;;20.19;63.57
68988;BME280;56038;46.080;11.116;2023-05-07T07:20:50;99364.75;;;19.92;64.25
68988;BME280;56038;46.080;11.116;2023-05-07T07:25:53;99371.50;;;19.85;64.12
68988;BME280;56038;46.080;11.116;2023-05-07T07:30:54;99361.25;;;19.69;63.92
68988;BME280;56038;46.080;11.116;2023-05-07T07:35:56;99361.72;;;19.63;63.78
68988;BME280;56038;46.080;11.116;2023-05-07T07:40:59;99365.25;;;19.75;63.37
68988;BME280;56038;46.080;11.116;2023-05-07T07:46:01;99357.66;;;19.93;63.07
68988;BME280;56038;46.080;11.116;2023-05-07T07:51:03;99366.06;;;20.20;62.86
68988;BME280;56038;46.080;11.116;2023-05-07T07:56:07;99359.66;;;20.45;62.58
68988;BME280;56038;46.080;11.116;2023-05-07T08:01:09;99355.63;;;20.62;62.37
68988;BME280;56038;46.080;11.116;2023-05-07T08:06:19;99360.38;;;20.47;61.32
68988;BME280;56038;46.080;11.116;2023-05-07T08:11:25;99365.09;;;20.44;61.78
68988;BME280;56038;46.080;11.116;2023-05-07T08:16:27;99364.00;;;20.46;61.76
68988;BME280;56038;46.080;11.116;2023-05-07T08:21:28;99361.50;;;20.77;61.22
68988;BME280;56038;46.080;11.116;2023-05-07T08:26:32;99358.72;;;20.78;60.77
68988;BME280;56038;46.080;11.116;2023-05-07T08:31:34;99365.53;;;20.92;60.48
68988;BME280;56038;46.080;11.116;2023-05-07T08:36:35;99359.41;;;21.12;59.87
68988;BME280;56038;46.080;11.116;2023-05-07T08:41:39;99353.97;;;21.56;59.17
68988;BME280;56038;46.080;11.116;2023-05-07T08:46:42;99357.53;;;21.96;58.27
68988;BME280;56038;46.080;11.116;2023-05-07T08:51:48;99362.09;;;21.85;57.90
68988;BME280;56038;46.080;11.116;2023-05-07T08:56:51;99352.13;;;22.07;57.02
68988;BME280;56038;46.080;11.116;2023-05-07T09:01:53;99349.56;;;22.36;56.19
68988;BME280;56038;46.080;11.116;2023-05-07T09:06:54;99337.25;;;22.55;55.61
68988;BME280;56038;46.080;11.116;2023-05-07T09:11:58;99340.34;;;22.69;55.16
68988;BME280;56038;46.080;11.116;2023-05-07T09:17:00;99336.03;;;22.78;54.95
68988;BME280;56038;46.080;11.116;2023-05-07T09:22:02;99329.03;;;22.87;54.20
68988;BME280;56038;46.080;11.116;2023-05-07T09:27:06;99330.25;;;22.44;53.52
68988;BME280;56038;46.080;11.116;2023-05-07T09:32:10;99319.50;;;22.84;53.56
68988;BME280;56038;46.080;11.116;2023-05-07T09:37:12;99335.63;;;22.73;52.03
68988;BME280;56038;46.080;11.116;2023-05-07T09:42:15;99324.09;;;22.63;53.38
68988;BME280;56038;46.080;11.116;2023-05-07T09:47:19;99320.47;;;22.74;52.52
68988;BME280;56038;46.080;11.116;2023-05-07T09:52:21;99315.00;;;22.65;53.12
68988;BME280;56038;46.080;11.116;2023-05-07T09:57:27;99314.88;;;22.77;53.00
68988;BME280;56038;46.080;11.116;2023-05-07T10:02:31;99307.28;;;22.72;52.96
68988;BME280;56038;46.080;11.116;2023-05-07T10:07:36;99303.25;;;23.07;52.62
68988;BME280;56038;46.080;11.116;2023-05-07T10:12:40;99303.09;;;23.08;51.76
68988;BME280;56038;46.080;11.116;2023-05-07T10:17:41;99281.63;;;22.81;51.76
68988;BME280;56038;46.080;11.116;2023-05-07T10:22:47;99280.66;;;23.01;51.45
68988;BME280;56038;46.080;11.116;2023-05-07T10:27:51;99278.06;;;23.28;51.88
68988;BME280;56038;46.080;11.116;2023-05-07T10:32:56;99273.59;;;23.19;52.30
68988;BME280;56038;46.080;11.116;2023-05-07T10:38:06;99266.38;;;22.83;53.59
68988;BME280;56038;46.080;11.116;2023-05-07T10:43:09;99269.44;;;22.68;54.04
68988;BME280;56038;46.080;11.116;2023-05-07T10:48:12;99259.91;;;22.56;54.17
68988;BME280;56038;46.080;11.116;2023-05-07T10:53:23;99255.97;;;22.70;53.84
68988;BME280;56038;46.080;11.116;2023-05-07T10:58:28;99250.13;;;22.76;52.81
68988;BME280;56038;46.080;11.116;2023-05-07T11:03:30;99251.94;;;22.95;52.07
68988;BME280;56038;46.080;11.116;2023-05-07T11:08:52;99246.75;;;23.40;50.30
68988;BME280;56038;46.080;11.116;2023-05-07T11:13:55;99236.22;;;24.03;49.83
68988;BME280;56038;46.080;11.116;2023-05-07T11:18:57;99226.38;;;24.31;48.40
68988;BME280;56038;46.080;11.116;2023-05-07T11:23:59;99223.13;;;24.45;47.94
68988;BME280;56038;46.080;11.116;2023-05-07T11:29:02;99210.41;;;24.39;47.74
68988;BME280;56038;46.080;11.116;2023-05-07T11:34:04;99202.47;;;24.30;47.30
68988;BME280;56038;46.080;11.116;2023-05-07T11:39:23;99202.50;;;24.47;43.40
68988;BME280;56038;46.080;11.116;2023-05-07T11:44:42;99202.06;;;25.04;43.74
68988;BME280;56038;46.080;11.116;2023-05-07T11:49:45;99185.38;;;25.70;44.17
68988;BME280;56038;46.080;11.116;2023-05-07T11:54:51;99175.38;;;25.80;40.38
68988;BME280;56038;46.080;11.116;2023-05-07T11:59:54;99164.94;;;26.52;41.53
68988;BME280;56038;46.080;11.116;2023-05-07T12:04:56;99169.91;;;27.51;40.44
68988;BME280;56038;46.080;11.116;2023-05-07T12:09:57;99160.47;;;28.17;39.00
68988;BME280;56038;46.080;11.116;2023-05-07T12:15:00;99156.16;;;27.85;38.66
68988;BME280;56038;46.080;11.116;2023-05-07T12:20:03;99150.19;;;28.29;37.00
68988;BME280;56038;46.080;11.116;2023-05-07T12:25:06;99148.94;;;28.09;38.54
68988;BME280;56038;46.080;11.116;2023-05-07T12:30:12;99141.69;;;28.78;37.57
68988;BME280;56038;46.080;11.116;2023-05-07T12:35:14;99141.53;;;29.09;37.80
68988;BME280;56038;46.080;11.116;2023-05-07T12:40:15;99140.63;;;28.64;38.03
68988;BME280;56038;46.080;11.116;2023-05-07T12:45:19;99135.00;;;28.36;36.80
68988;BME280;56038;46.080;11.116;2023-05-07T12:50:20;99122.47;;;28.81;37.58
68988;BME280;56038;46.080;11.116;2023-05-07T12:55:22;99109.41;;;29.37;36.44
68988;BME280;56038;46.080;11.116;2023-05-07T13:00:35;99097.69;;;29.44;33.87
68988;BME280;56038;46.080;11.116;2023-05-07T13:05:41;99099.91;;;30.34;32.01
68988;BME280;56038;46.080;11.116;2023-05-07T13:10:47;99089.94;;;28.76;33.55
68988;BME280;56038;46.080;11.116;2023-05-07T13:15:50;99084.13;;;29.89;34.35
68988;BME280;56038;46.080;11.116;2023-05-07T13:20:52;99079.84;;;29.73;34.41
68988;BME280;56038;46.080;11.116;2023-05-07T13:25:54;99081.53;;;28.93;35.39
68988;BME280;56038;46.080;11.116;2023-05-07T13:30:57;99066.47;;;28.70;35.74
68988;BME280;56038;46.080;11.116;2023-05-07T13:35:59;99060.78;;;28.35;35.91
68988;BME280;56038;46.080;11.116;2023-05-07T13:41:01;99061.28;;;29.27;34.96
68988;BME280;56038;46.080;11.116;2023-05-07T13:46:04;99053.53;;;29.54;34.30
68988;BME280;56038;46.080;11.116;2023-05-07T13:51:06;99049.75;;;29.33;35.20
68988;BME280;56038;46.080;11.116;2023-05-07T13:56:07;99053.63;;;28.95;35.57
68988;BME280;56038;46.080;11.116;2023-05-07T14:01:10;99066.44;;;28.40;36.15
68988;BME280;56038;46.080;11.116;2023-05-07T14:06:19;99053.31;;;27.62;36.60
68988;BME280;56038;46.080;11.116;2023-05-07T14:11:28;99053.34;;;26.83;37.86
68988;BME280;56038;46.080;11.116;2023-05-07T14:16:31;99056.91;;;26.60;38.68
68988;BME280;56038;46.080;11.116;2023-05-07T14:21:32;99059.44;;;26.28;39.37
68988;BME280;56038;46.080;11.116;2023-05-07T14:26:34;99045.41;;;26.10;39.84
68988;BME280;56038;46.080;11.116;2023-05-07T14:31:37;99052.13;;;25.98;39.86
68988;BME280;56038;46.080;11.116;2023-05-07T14:36:39;99047.91;;;25.87;39.96
68988;BME280;56038;46.080;11.116;2023-05-07T14:41:40;99039.06;;;25.95;39.94
68988;BME280;56038;46.080;11.116;2023-05-07T14:46:43;99049.44;;;25.90;39.92
68988;BME280;56038;46.080;11.116;2023-05-07T14:51:45;99055.38;;;25.51;40.43
68988;BME280;56038;46.080;11.116;2023-05-07T14:56:47;99065.38;;;25.33;40.53
68988;BME280;56038;46.080;11.116;2023-05-07T15:01:51;99060.75;;;25.01;41.18
68988;BME280;56038;46.080;11.116;2023-05-07T15:06:52;99069.78;;;24.74;41.78
68988;BME280;56038;46.080;11.116;2023-05-07T15:11:56;99064.19;;;24.59;42.37
68988;BME280;56038;46.080;11.116;2023-05-07T15:16:59;99064.84;;;24.61;42.21
68988;BME280;56038;46.080;11.116;2023-05-07T15:22:01;99074.56;;;24.62;42.01
68988;BME280;56038;46.080;11.116;2023-05-07T15:27:03;99070.34;;;24.86;42.10
68988;BME280;56038;46.080;11.116;2023-05-07T15:32:06;99058.13;;;25.09;42.10
68988;BME280;56038;46.080;11.116;2023-05-07T15:37:07;99060.81;;;25.09;42.35
68988;BME280;56038;46.080;11.116;2023-05-07T15:42:09;99073.06;;;25.28;42.01
68988;BME280;56038;46.080;11.116;2023-05-07T15:47:12;99074.09;;;25.43;41.74
68988;BME280;56038;46.080;11.116;2023-05-07T15:52:14;99073.44;;;25.41;42.00
68988;BME280;56038;46.080;11.116;2023-05-07T15:57:16;99077.88;;;25.24;42.65
68988;BME280;56038;46.080;11.116;2023-05-07T16:02:19;99077.69;;;25.18;42.75
68988;BME280;56038;46.080;11.116;2023-05-07T16:07:22;99064.16;;;25.11;42.56
68988;BME280;56038;46.080;11.116;2023-05-07T16:12:24;99075.94;;;25.00;43.02
68988;BME280;56038;46.080;11.116;2023-05-07T16:17:27;99073.50;;;24.81;43.67
68988;BME280;56038;46.080;11.116;2023-05-07T16:22:28;99062.91;;;24.71;43.71
68988;BME280;56038;46.080;11.116;2023-05-07T16:27:30;99062.66;;;24.57;44.28
68988;BME280;56038;46.080;11.116;2023-05-07T16:32:33;99076.44;;;24.44;44.69
68988;BME280;56038;46.080;11.116;2023-05-07T16:37:35;99078.25;;;24.17;45.19
68988;BME280;56038;46.080;11.116;2023-05-07T16:42:37;99095.47;;;24.05;45.36
68988;BME280;56038;46.080;11.116;2023-05-07T16:47:40;99114.06;;;23.79;45.74
68988;BME280;56038;46.080;11.116;2023-05-07T16:52:42;99117.19;;;23.57;45.96
68988;BME280;56038;46.080;11.116;2023-05-07T16:57:43;99125.84;;;23.31;46.60
68988;BME280;56038;46.080;11.116;2023-05-07T17:02:46;99136.69;;;22.93;46.87
68988;BME280;56038;46.080;11.116;2023-05-07T17:07:48;99146.66;;;22.71;45.63
68988;BME280;56038;46.080;11.116;2023-05-07T17:12:50;99148.75;;;22.87;45.92
68988;BME280;56038;46.080;11.116;2023-05-07T17:17:53;99152.00;;;22.91;46.06
68988;BME280;56038;46.080;11.116;2023-05-07T17:22:55;99158.56;;;22.87;46.08
68988;BME280;56038;46.080;11.116;2023-05-07T17:27:56;99178.50;;;22.83;46.19
68988;BME280;56038;46.080;11.116;2023-05-07T17:32:59;99176.09;;;22.80;46.48
68988;BME280;56038;46.080;11.116;2023-05-07T17:38:01;99176.38;;;22.86;46.62
68988;BME280;56038;46.080;11.116;2023-05-07T17:43:03;99175.22;;;22.98;46.77
68988;BME280;56038;46.080;11.116;2023-05-07T17:48:06;99176.34;;;22.96;46.76
68988;BME280;56038;46.080;11.116;2023-05-07T17:53:09;99182.78;;;23.03;46.96
68988;BME280;56038;46.080;11.116;2023-05-07T17:58:11;99191.47;;;23.05;46.37
68988;BME280;56038;46.080;11.116;2023-05-07T18:03:14;99193.91;;;22.89;46.01
68988;BME280;56038;46.080;11.116;2023-05-07T18:08:15;99206.94;;;22.82;45.78
68988;BME280;56038;46.080;11.116;2023-05-07T18:13:17;99216.22;;;22.59;46.20
68988;BME280;56038;46.080;11.116;2023-05-07T18:18:22;99212.84;;;22.47;46.65
68988;BME280;56038;46.080;11.116;2023-05-07T18:23:25;99209.50;;;22.26;46.73
68988;BME280;56038;46.080;11.116;2023-05-07T18:28:27;99211.03;;;22.19;47.35
68988;BME280;56038;46.080;11.116;2023-05-07T18:33:30;99226.38;;;21.96;48.08
68988;BME280;56038;46.080;11.116;2023-05-07T18:38:32;99240.34;;;21.88;48.75
68988;BME280;56038;46.080;11.116;2023-05-07T18:43:34;99277.28;;;21.91;49.25
68988;BME280;56038;46.080;11.116;2023-05-07T18:48:37;99295.06;;;21.81;50.21
68988;BME280;56038;46.080;11.116;2023-05-07T18:53:39;99283.72;;;21.48;52.85
68988;BME280;56038;46.080;11.116;2023-05-07T18:58:40;99299.09;;;21.03;55.89
68988;BME280;56038;46.080;11.116;2023-05-07T19:03:43;99295.84;;;20.47;59.60
68988;BME280;56038;46.080;11.116;2023-05-07T19:08:45;99326.31;;;19.98;63.74
68988;BME280;56038;46.080;11.116;2023-05-07T19:13:48;99331.28;;;19.11;68.51
68988;BME280;56038;46.080;11.116;2023-05-07T19:18:51;99330.56;;;18.62;71.44
68988;BME280;56038;46.080;11.116;2023-05-07T19:23:53;99328.22;;;18.09;74.86
68988;BME280;56038;46.080;11.116;2023-05-07T19:28:56;99356.63;;;18.31;73.24
68988;BME280;56038;46.080;11.116;2023-05-07T19:33:59;99378.81;;;18.78;70.89
68988;BME280;56038;46.080;11.116;2023-05-07T19:39:01;99399.81;;;17.93;75.53
68988;BME280;56038;46.080;11.116;2023-05-07T19:44:03;99424.78;;;17.24;79.43
68988;BME280;56038;46.080;11.116;2023-05-07T19:49:06;99414.25;;;16.97;80.09
68988;BME280;56038;46.080;11.116;2023-05-07T19:54:08;99422.44;;;16.80;81.43
68988;BME280;56038;46.080;11.116;2023-05-07T19:59:10;99429.28;;;16.83;82.74
68988;BME280;56038;46.080;11.116;2023-05-07T20:04:13;99430.81;;;16.72;82.70
68988;BME280;56038;46.080;11.116;2023-05-07T20:09:15;99432.72;;;16.70;82.38
68988;BME280;56038;46.080;11.116;2023-05-07T20:14:16;99444.78;;;16.74;82.69
68988;BME280;56038;46.080;11.116;2023-05-07T20:19:19;99440.94;;;16.52;85.56
68988;BME280;56038;46.080;11.116;2023-05-07T20:24:21;99451.59;;;16.36;91.39
68988;BME280;56038;46.080;11.116;2023-05-07T20:29:23;99444.28;;;16.27;88.63
68988;BME280;56038;46.080;11.116;2023-05-07T20:34:27;99450.00;;;15.91;89.87
68988;BME280;56038;46.080;11.116;2023-05-07T20:39:29;99437.97;;;16.01;87.46
68988;BME280;56038;46.080;11.116;2023-05-07T20:44:31;99427.53;;;16.13;86.92
68988;BME280;56038;46.080;11.116;2023-05-07T20:49:34;99427.53;;;15.99;86.74
68988;BME280;56038;46.080;11.116;2023-05-07T20:54:36;99427.34;;;15.88;92.53
68988;BME280;56038;46.080;11.116;2023-05-07T20:59:39;99433.25;;;15.92;90.20
68988;BME280;56038;46.080;11.116;2023-05-07T21:04:42;99436.75;;;16.06;88.01
68988;BME280;56038;46.080;11.116;2023-05-07T21:09:44;99447.97;;;16.10;88.83
68988;BME280;56038;46.080;11.116;2023-05-07T21:14:45;99451.81;;;16.18;87.49
68988;BME280;56038;46.080;11.116;2023-05-07T21:19:48;99477.22;;;16.34;86.91
68988;BME280;56038;46.080;11.116;2023-05-07T21:24:50;99476.81;;;16.40;85.69
68988;BME280;56038;46.080;11.116;2023-05-07T21:29:52;99485.66;;;16.39;86.74
68988;BME280;56038;46.080;11.116;2023-05-07T21:34:55;99490.19;;;16.51;85.80
68988;BME280;56038;46.080;11.116;2023-05-07T21:39:56;99498.09;;;16.51;86.12
68988;BME280;56038;46.080;11.116;2023-05-07T21:44:58;99507.69;;;16.52;85.85
68988;BME280;56038;46.080;11.116;2023-05-07T21:50:01;99513.28;;;16.47;86.72
68988;BME280;56038;46.080;11.116;2023-05-07T21:55:04;99519.38;;;16.20;87.92
68988;BME280;56038;46.080;11.116;2023-05-07T22:00:07;99507.91;;;16.21;89.13
68988;BME280;56038;46.080;11.116;2023-05-07T22:05:10;99508.47;;;16.11;96.37
68988;BME280;56038;46.080;11.116;2023-05-07T22:10:29;99516.91;;;15.88;96.31
68988;BME280;56038;46.080;11.116;2023-05-07T22:15:31;99521.44;;;16.00;92.45
68988;BME280;56038;46.080;11.116;2023-05-07T22:20:34;99522.50;;;16.12;91.17
68988;BME280;56038;46.080;11.116;2023-05-07T22:25:36;99536.59;;;16.25;89.81
68988;BME280;56038;46.080;11.116;2023-05-07T22:30:38;99532.94;;;16.13;91.20
68988;BME280;56038;46.080;11.116;2023-05-07T22:35:41;99542.91;;;15.94;94.88
68988;BME280;56038;46.080;11.116;2023-05-07T22:40:42;99554.34;;;15.79;97.77
68988;BME280;56038;46.080;11.116;2023-05-07T22:45:44;99557.34;;;15.41;100.00
68988;BME280;56038;46.080;11.116;2023-05-07T22:50:47;99557.16;;;15.44;100.00
68988;BME280;56038;46.080;11.116;2023-05-07T22:55:49;99548.59;;;15.41;100.00
68988;BME280;56038;46.080;11.116;2023-05-07T23:00:50;99545.97;;;15.41;100.00
68988;BME280;56038;46.080;11.116;2023-05-07T23:06:02;99541.97;;;15.49;99.75
68988;BME280;56038;46.080;11.116;2023-05-07T23:11:09;99541.53;;;15.41;100.00
68988;BME280;56038;46.080;11.116;2023-05-07T23:16:10;99533.25;;;15.33;100.00
68988;BME280;56038;46.080;11.116;2023-05-07T23:21:13;99544.53;;;15.35;100.00
68988;BME280;56038;46.080;11.116;2023-05-07T23:26:15;99550.47;;;15.39;100.00
68988;BME280;56038;46.080;11.116;2023-05-07T23:31:17;99547.94;;;15.37;100.00
68988;BME280;56038;46.080;11.116;2023-05-07T23:36:20;99559.69;;;15.46;99.79
68988;BME280;56038;46.080;11.116;2023-05-07T23:41:22;99545.69;;;15.61;98.29
68988;BME280;56038;46.080;11.116;2023-05-07T23:46:23;99545.66;;;15.77;97.80
68988;BME280;56038;46.080;11.116;2023-05-07T23:51:27;99549.22;;;15.76;97.77
68988;BME280;56038;46.080;11.116;2023-05-07T23:56:29;99549.22;;;15.76;96.64
